tititudorancea.com
Station Historical Data
Daily Summary for January 19, 2018 Units:  Metric    English   Both
« Previous Day
Next Day »
Daily Weekly Monthly Yearly Custom
  High: Low: Average:
Temperature: -17.8 °C 19.2 °C 29.8 °C
Dew Point: -17.8 °C -4.6 °C 4.2 °C
Humidity: Humidity % 6 % 25 %
Wind Speed: 0 km/h 0 km/h 9.7 km/h
Wind Gust: 0 km/h - -
Wind:- - SSW
Pressure: 0 hPa 1005 hPa -
Precipitation: 0 mm    
Historical Graphs
 
 
Ararat weather Find more about Weather in Ararat, AU


 



 


Tabular Data for January 19, 2018
Time Temperature Dew Point Pressure Wind Wind Speed Wind Gust Humidity Rainfall Rate (Hourly)
-17.8 °C -17.8 °C 0 hPa Calm     Humidity % 0 mm
00:03 24.9 °C 5.1 °C 1010 hPa Calm     28 % 0 mm
00:08 24.5 °C 5.3 °C 1010 hPa Calm     29 % 0 mm
00:13 24.3 °C 5.2 °C 1010 hPa South 1.4 km/h 3.7 km/h 29 % 0 mm
00:18 24.2 °C 5.6 °C 1010 hPa Calm     30 % 0 mm
00:23 24.1 °C 6.8 °C 1009.7 hPa South 4.7 km/h 5.6 km/h 33 % 0 mm
00:28 23.7 °C 6.4 °C 1010 hPa Calm     33 % 0 mm
00:33 23.2 °C 6.9 °C 1009.7 hPa Calm     35 % 0 mm
00:38 22.9 °C 5.8 °C 1009.7 hPa Calm     33 % 0 mm
00:43 22.8 °C 6.6 °C 1009.7 hPa South 0.3 km/h 1.9 km/h 35 % 0 mm
00:48 22.8 °C 6.1 °C 1009.7 hPa Calm     34 % 0 mm
00:53 22.8 °C 6.5 °C 1009.7 hPa Calm     35 % 0 mm
00:58 22.7 °C 6 °C 1009.7 hPa Calm     34 % 0 mm
01:03 22.6 °C 5.9 °C 1009.7 hPa Calm     34 % 0 mm
01:08 22.6 °C 5.9 °C 1009.4 hPa Calm     34 % 0 mm
01:13 22.5 °C 5.8 °C 1009.4 hPa Calm     34 % 0 mm
01:18 22.3 °C 6.1 °C 1009.4 hPa South 4 km/h 5.6 km/h 35 % 0 mm
01:23 21.9 °C 5.8 °C 1009.7 hPa South 0.5 km/h 1.9 km/h 35 % 0 mm
01:28 21.9 °C 6.1 °C 1009.7 hPa Calm     36 % 0 mm
01:33 21.6 °C 5.9 °C 1009.4 hPa Calm     36 % 0 mm
01:38 21.4 °C 6.5 °C 1009.4 hPa Calm     38 % 0 mm
01:43 21.1 °C 6.2 °C 1009.4 hPa South 0.5 km/h 3.2 km/h 38 % 0 mm
01:48 21 °C 6.5 °C 1009.4 hPa South 1.3 km/h 3.7 km/h 39 % 0 mm
01:53 20.9 °C 5.7 °C 1009.4 hPa Calm   1.9 km/h 37 % 0 mm
01:58 20.9 °C 6.4 °C 1009.4 hPa Calm     39 % 0 mm
02:03 20.8 °C 6.3 °C 1009.4 hPa Calm     39 % 0 mm
02:08 20.6 °C 6.5 °C 1009.4 hPa Calm     40 % 0 mm
02:13 20.4 °C 6.7 °C 1009.4 hPa Calm     41 % 0 mm
02:18 20.2 °C 6.6 °C 1009.4 hPa Calm     41 % 0 mm
02:23 20.1 °C 6.7 °C 1009.4 hPa Calm     42 % 0 mm
02:28 20 °C 6.7 °C 1009 hPa Calm     42 % 0 mm
02:33 19.9 °C 6.7 °C 1009 hPa Calm     42 % 0 mm
02:38 19.8 °C 6.5 °C 1009 hPa Calm     42 % 0 mm
02:43 19.6 °C 6.7 °C 1009 hPa Calm     43 % 0 mm
02:48 19.5 °C 6.6 °C 1009 hPa Calm     43 % 0 mm
02:53 19.4 °C 6.8 °C 1009 hPa Calm     44 % 0 mm
02:58 19.3 °C 6.4 °C 1009 hPa Calm     43 % 0 mm
03:03 19.2 °C 6.3 °C 1008.7 hPa South 0.2 km/h 1.9 km/h 43 % 0 mm
03:08 19.3 °C 6.4 °C 1008.7 hPa South 1.3 km/h 3.7 km/h 43 % 0 mm
03:13 19.4 °C 5.8 °C 1008.7 hPa South 0.2 km/h 1.9 km/h 41 % 0 mm
03:18 19.6 °C 6.3 °C 1008.7 hPa South 0.5 km/h 3.7 km/h 42 % 0 mm
03:23 19.4 °C 5.1 °C 1008.7 hPa South 0.3 km/h 3.2 km/h 39 % 0 mm
03:28 19.6 °C 4.5 °C 1008.7 hPa North 5.8 km/h 6.4 km/h 37 % 0 mm
03:33 20.2 °C 3.4 °C 1008.7 hPa South 6.4 km/h 7.4 km/h 33 % 0 mm
03:38 20.7 °C 3.8 °C 1008.4 hPa South 5.5 km/h 6.4 km/h 33 % 0 mm
03:43 21.1 °C 3.3 °C 1008.7 hPa South 5.5 km/h 6.4 km/h 31 % 0 mm
03:48 21.4 °C 3.1 °C 1008.7 hPa South 6 km/h 8 km/h 30 % 0 mm
03:53 21.6 °C 2.8 °C 1008.7 hPa South 4.7 km/h 7.4 km/h 29 % 0 mm
03:58 21.7 °C 2.8 °C 1008.4 hPa South 7.4 km/h 9.3 km/h 29 % 0 mm
04:03 21.7 °C 2.9 °C 1008.4 hPa South 5.1 km/h 7.4 km/h 29 % 0 mm
04:08 21.7 °C 2.4 °C 1008.4 hPa South 6 km/h 9.3 km/h 28 % 0 mm
04:13 21.7 °C 2.4 °C 1008.4 hPa North 5 km/h 7.4 km/h 28 % 0 mm
04:18 21.7 °C 2.3 °C 1008.4 hPa South 6.4 km/h 9.3 km/h 28 % 0 mm
04:23 21.7 °C 2.3 °C 1008.4 hPa SE 9.2 km/h 11.1 km/h 28 % 0 mm
04:28 21.8 °C 2.4 °C 1008.4 hPa ESE 9.5 km/h 11.1 km/h 28 % 0 mm
04:33 21.9 °C 2.6 °C 1008.4 hPa ESE 7.6 km/h 11.1 km/h 28 % 0 mm
04:38 21.9 °C 2.6 °C 1008.4 hPa ESE 7.7 km/h 11.1 km/h 28 % 0 mm
04:43 21.8 °C 2.9 °C 1008.4 hPa ESE 7.6 km/h 7.6 km/h 29 % 0 mm
04:48 21.5 °C 3.2 °C 1008.4 hPa ESE 6.4 km/h 9.3 km/h 30 % 0 mm
04:53 21.3 °C 3 °C 1008.7 hPa ESE 6.8 km/h 9.3 km/h 30 % 0 mm
04:58 21.2 °C 2.9 °C 1008.7 hPa ESE 5.3 km/h 9.3 km/h 30 % 0 mm
05:03 21.1 °C 2.8 °C 1008.7 hPa East 8.4 km/h 11.1 km/h 30 % 0 mm
05:08 21.1 °C 2.8 °C 1009 hPa East 7.7 km/h 11.1 km/h 30 % 0 mm
05:13 21.1 °C 2.8 °C 1009 hPa East 7.9 km/h 9.3 km/h 30 % 0 mm
05:18 21.1 °C 2.3 °C 1009 hPa East 5.5 km/h 7.4 km/h 29 % 0 mm
05:23 20.9 °C 2.2 °C 1009 hPa East 7.6 km/h 11.1 km/h 29 % 0 mm
05:28 20.9 °C 2.7 °C 1009 hPa East 4.7 km/h 5.6 km/h 30 % 0 mm
05:33 20.7 °C 2.1 °C 1009 hPa East 6.9 km/h 7.4 km/h 29 % 0 mm
05:38 20.7 °C 2.4 °C 1009 hPa East 4.3 km/h 4.3 km/h 30 % 0 mm
05:43 20.6 °C 2.4 °C 1009 hPa East 8 km/h 9.7 km/h 30 % 0 mm
05:48 20.6 °C 1.9 °C 1009 hPa East 5.3 km/h 7.4 km/h 29 % 0 mm
05:53 20.6 °C 2.4 °C 1009 hPa East 7.1 km/h 7.4 km/h 30 % 0 mm
05:58 20.6 °C 1.9 °C 1009.4 hPa East 7.2 km/h 9.3 km/h 29 % 0 mm
06:03 20.6 °C 1.9 °C 1009 hPa East 6.8 km/h 9.3 km/h 29 % 0 mm
06:08 20.6 °C 1.4 °C 1009 hPa East 8.9 km/h 13 km/h 28 % 0 mm
06:13 20.8 °C 1.6 °C 1009.4 hPa East 8 km/h 8 km/h 28 % 0 mm
06:18 20.8 °C 1.6 °C 1009.4 hPa East 7.1 km/h 7.4 km/h 28 % 0 mm
06:23 20.8 °C 1.6 °C 1009.4 hPa East 7.9 km/h 9.3 km/h 28 % 0 mm
06:28 20.8 °C 2.1 °C 1009.4 hPa East 9 km/h 11.1 km/h 29 % 0 mm
06:33 20.8 °C 1.6 °C 1009.4 hPa East 8.9 km/h 9.7 km/h 28 % 0 mm
06:38 20.9 °C 1.7 °C 1009.7 hPa East 7.1 km/h 8 km/h 28 % 0 mm
06:43 20.9 °C 1.7 °C 1009.7 hPa East 7.2 km/h 9.3 km/h 28 % 0 mm
06:48 20.9 °C 1.7 °C 1009.7 hPa East 7.1 km/h 9.3 km/h 28 % 0 mm
06:53 20.9 °C 1.7 °C 1009.7 hPa East 8.2 km/h 9.3 km/h 28 % 0 mm
06:58 21.2 °C 1.9 °C 1009.7 hPa East 8.2 km/h 11.1 km/h 28 % 0 mm
07:03 21.4 °C 2.2 °C 1009.7 hPa ENE 7.1 km/h 11.1 km/h 28 % 0 mm
07:08 21.6 °C 1.8 °C 1009.7 hPa ENE 7.4 km/h 9.3 km/h 27 % 0 mm
07:13 21.7 °C 2.8 °C 1010 hPa ENE 2.4 km/h 5.6 km/h 29 % 0 mm
07:18 21.7 °C 2.3 °C 1010 hPa ENE 6 km/h 7.4 km/h 28 % 0 mm
07:23 21.8 °C 2.5 °C 1010 hPa ENE 6.1 km/h 7.4 km/h 28 % 0 mm
07:28 21.9 °C 2.6 °C 1010 hPa ENE 6.3 km/h 7.4 km/h 28 % 0 mm
07:33 22.2 °C 2.8 °C 1010 hPa ENE 7.1 km/h 11.1 km/h 28 % 0 mm
07:38 22.5 °C 3.1 °C 1010 hPa ENE 4.2 km/h 5.6 km/h 28 % 0 mm
07:43 22.9 °C 2.9 °C 1010 hPa ENE 7.6 km/h 9.3 km/h 27 % 0 mm
07:48 23.4 °C 2.8 °C 1010 hPa ENE 8.5 km/h 11.1 km/h 26 % 0 mm
07:53 23.8 °C 3.1 °C 1009.7 hPa NE 9.5 km/h 12.9 km/h 26 % 0 mm
07:59 24.1 °C 2.8 °C 1009.7 hPa NE 8.5 km/h 11.1 km/h 25 % 0 mm
08:04 24.5 °C 3.2 °C 1009.7 hPa NE 8 km/h 11.3 km/h 25 % 0 mm
08:09 25.2 °C 3.2 °C 1009.7 hPa NNE 7.1 km/h 14.8 km/h 24 % 0 mm
08:14 26 °C 1.9 °C 1009.7 hPa NNE 10.9 km/h 16.1 km/h 21 % 0 mm
08:19 27.2 °C 0.8 °C 1009.7 hPa North 11.3 km/h 22.2 km/h 18 % 0 mm
08:24 28.1 °C 0.8 °C 1009.7 hPa North 10.8 km/h 19.3 km/h 17 % 0 mm
08:29 28.6 °C 0.3 °C 1009.7 hPa North 10.8 km/h 18.5 km/h 16 % 0 mm
08:34 29 °C 0.6 °C 1010 hPa North 9.7 km/h 24.1 km/h 16 % 0 mm
08:39 29.3 °C 0.8 °C 1010 hPa North 9.3 km/h 18.5 km/h 16 % 0 mm
08:44 29.5 °C 0.1 °C 1010 hPa North 11.1 km/h 16.1 km/h 15 % 0 mm
08:49 29.6 °C 0.2 °C 1010 hPa NNE 15.1 km/h 20.4 km/h 15 % 0 mm
08:54 29.6 °C 0.2 °C 1010 hPa NNE 17.5 km/h 24.1 km/h 15 % 0 mm
08:59 29.6 °C 0.2 °C 1010 hPa North 15.9 km/h 25.9 km/h 15 % 0 mm
09:04 29.7 °C 0.3 °C 1010 hPa North 21.9 km/h 29.6 km/h 15 % 0 mm
09:09 29.8 °C 0.3 °C 1010 hPa North 11.9 km/h 18.5 km/h 15 % 0 mm
09:14 30 °C 0.6 °C 1010 hPa North 12.7 km/h 20.9 km/h 15 % 0 mm
09:19 30.2 °C 0.7 °C 1010 hPa North 9.3 km/h 16.7 km/h 15 % 0 mm
09:24 30.5 °C 0.9 °C 1010 hPa NNW 10.6 km/h 24.1 km/h 15 % 0 mm
09:29 30.4 °C -0.1 °C 1010 hPa North 16.4 km/h 29.6 km/h 14 % 0 mm
09:34 30.4 °C -0.1 °C 1010 hPa North 19.6 km/h 24.1 km/h 14 % 0 mm
09:39 30.6 °C 0.9 °C 1010 hPa NNE 14.2 km/h 18.5 km/h 15 % 0 mm
09:44 30.8 °C 0.2 °C 1010 hPa North 15.9 km/h 18.5 km/h 14 % 0 mm
09:49 31.1 °C 0.4 °C 1010 hPa NNW 13.2 km/h 18.5 km/h 14 % 0 mm
09:54 31.3 °C 0.6 °C 1009.7 hPa North 10 km/h 16.7 km/h 14 % 0 mm
09:59 31.7 °C 0.9 °C 1009.7 hPa North 8.9 km/h 16.7 km/h 14 % 0 mm
10:04 32.2 °C 1.3 °C 1009.7 hPa North 13.2 km/h 18.5 km/h 14 % 0 mm
10:09 32.5 °C 0.5 °C 1009.7 hPa NNW 11.9 km/h 20.4 km/h 13 % 0 mm
10:14 32.8 °C 0.8 °C 1009.7 hPa North 12.7 km/h 22.2 km/h 13 % 0 mm
10:19 33.1 °C -0.1 °C 1010 hPa NNW 12.1 km/h 18.5 km/h 12 % 0 mm
10:24 33.3 °C 0.1 °C 1009.7 hPa NNW 15.4 km/h 20.4 km/h 12 % 0 mm
10:29 33.6 °C -0.9 °C 1009.7 hPa North 17.5 km/h 24.1 km/h 11 % 0 mm
10:34 33.8 °C 0.4 °C 1009.7 hPa NNW 8.5 km/h 14.8 km/h 12 % 0 mm
10:39 34.2 °C -0.4 °C 1009.7 hPa North 18.2 km/h 22.5 km/h 11 % 0 mm
10:44 34.3 °C -0.4 °C 1009.7 hPa NNW 15 km/h 20.4 km/h 11 % 0 mm
10:49 34.4 °C -1.6 °C 1009.7 hPa NNW 15 km/h 22.2 km/h 10 % 0 mm
10:54 34.7 °C -0.1 °C 1009.7 hPa NW 10.5 km/h 13 km/h 11 % 0 mm
10:59 34.9 °C -1.2 °C 1009.7 hPa North 12.9 km/h 18.5 km/h 10 % 0 mm
11:04 35.2 °C -1 °C 1009.7 hPa NW 15.1 km/h 27.8 km/h 10 % 0 mm
11:09 35.4 °C -2.3 °C 1009.7 hPa NW 17.4 km/h 24.1 km/h 9 % 0 mm
11:14 35.6 °C -2.2 °C 1009.7 hPa NW 19.2 km/h 31.5 km/h 9 % 0 mm
11:19 35.7 °C -0.7 °C 1009.7 hPa NNW 15.3 km/h 20.4 km/h 10 % 0 mm
11:24 36 °C -0.4 °C 1009.7 hPa NNW 11.7 km/h 29.6 km/h 10 % 0 mm
11:29 36.1 °C -1.8 °C 1009.7 hPa NNE 15 km/h 27.8 km/h 9 % 0 mm
11:34 36.3 °C -1.7 °C 1009.7 hPa North 16.6 km/h 22.2 km/h 9 % 0 mm
11:39 36.6 °C -1.4 °C 1009.7 hPa North 13 km/h 22.2 km/h 9 % 0 mm
11:44 36.8 °C -1.3 °C 1009.4 hPa North 9.2 km/h 20.4 km/h 9 % 0 mm
11:49 37.2 °C -1 °C 1009.4 hPa North 11.7 km/h 24.1 km/h 9 % 0 mm
11:54 36.8 °C -1.2 °C 1009.4 hPa North 10.8 km/h 18.5 km/h 9 % 0 mm
11:59 37.1 °C -1.1 °C 1009.4 hPa NNE 16.6 km/h 25.9 km/h 9 % 0 mm
12:04 37.3 °C -0.9 °C 1009.4 hPa NNW 11.1 km/h 18.5 km/h 9 % 0 mm
12:09 37.3 °C -2.4 °C 1009.4 hPa North 10.6 km/h 18.5 km/h 8 % 0 mm
12:14 37.5 °C -0.7 °C 1009 hPa North 7.6 km/h 13 km/h 9 % 0 mm
12:19 37.8 °C -2.1 °C 1009 hPa NNE 11.9 km/h 18.5 km/h 8 % 0 mm
12:24 37.6 °C -2.3 °C 1009 hPa North 11.3 km/h 14.8 km/h 8 % 0 mm
12:29 37.8 °C -0.5 °C 1009 hPa North 8.4 km/h 13 km/h 9 % 0 mm
12:34 38 °C -1.9 °C 1009 hPa North 20 km/h 25.9 km/h 8 % 0 mm
12:39 38.1 °C -1.9 °C 1009 hPa NW 14.6 km/h 20.4 km/h 8 % 0 mm
12:44 38.2 °C -1.8 °C 1009 hPa NW 16.4 km/h 22.2 km/h 8 % 0 mm
12:49 38.5 °C -1.6 °C 1008.7 hPa NW 13.4 km/h 24.1 km/h 8 % 0 mm
12:54 38.8 °C -1.4 °C 1008.7 hPa North 10.6 km/h 16.7 km/h 8 % 0 mm
12:59 39.2 °C -1.1 °C 1008.7 hPa North 4.7 km/h 7.4 km/h 8 % 0 mm
13:04 39.3 °C -2.8 °C 1008.7 hPa North 10.5 km/h 16.7 km/h 7 % 0 mm
13:09 39.1 °C -3 °C 1008.7 hPa WNW 6.1 km/h 16.7 km/h 7 % 0 mm
13:14 39.3 °C -2.8 °C 1008.7 hPa North 13.2 km/h 20.4 km/h 7 % 0 mm
13:19 39.2 °C -2.9 °C 1008.4 hPa North 9.2 km/h 14.8 km/h 7 % 0 mm
13:24 39.3 °C -2.8 °C 1008.4 hPa North 12.9 km/h 22.2 km/h 7 % 0 mm
13:29 39.5 °C -2.7 °C 1008.4 hPa North 15.9 km/h 25.9 km/h 7 % 0 mm
13:34 39.4 °C -2.8 °C 1008.4 hPa NNW 13.2 km/h 24.1 km/h 7 % 0 mm
13:39 39.9 °C -2.4 °C 1008 hPa NW 16.1 km/h 24.1 km/h 7 % 0 mm
13:44 39.7 °C -4.6 °C 1008 hPa NNW 11.7 km/h 16.7 km/h 6 % 0 mm
13:49 39.7 °C -2.6 °C 1008 hPa NNE 12.1 km/h 18.5 km/h 7 % 0 mm
13:54 40 °C -4.4 °C 1007.7 hPa North 6.9 km/h 11.1 km/h 6 % 0 mm
13:59 40.2 °C -4.2 °C 1007.7 hPa NNW 15.4 km/h 29.6 km/h 6 % 0 mm
14:04 40.3 °C -4.2 °C 1007.7 hPa NW 20.4 km/h 31.5 km/h 6 % 0 mm
14:09 40.1 °C -4.3 °C 1007.7 hPa North 13 km/h 18.5 km/h 6 % 0 mm
14:14 40.2 °C -4.2 °C 1007.7 hPa North 16.4 km/h 25.9 km/h 6 % 0 mm
14:19 40.3 °C -4.2 °C 1007.3 hPa NW 18.8 km/h 24.1 km/h 6 % 0 mm
14:24 40.4 °C -2 °C 1007.3 hPa NNW 12.4 km/h 20.4 km/h 7 % 0 mm
14:29 40.6 °C -4 °C 1007.3 hPa WNW 15.3 km/h 22.2 km/h 6 % 0 mm
14:34 40.7 °C -1.8 °C 1007 hPa NW 7.4 km/h 11.1 km/h 7 % 0 mm
14:39 40.9 °C -1.6 °C 1007.3 hPa NW 14.2 km/h 19.3 km/h 7 % 0 mm
14:44 40.8 °C -1.7 °C 1007.3 hPa NW 19.8 km/h 27.8 km/h 7 % 0 mm
14:49 40.8 °C -1.7 °C 1007 hPa North 9.8 km/h 14.8 km/h 7 % 0 mm
14:54 41.2 °C -1.4 °C 1007 hPa NNW 8 km/h 13 km/h 7 % 0 mm
14:59 41.3 °C -1.4 °C 1007 hPa NNW 14.3 km/h 24.1 km/h 7 % 0 mm
15:04 41.2 °C -1.4 °C 1006.7 hPa North 15.8 km/h 22.5 km/h 7 % 0 mm
15:09 41.2 °C -3.5 °C 1006.7 hPa North 11.1 km/h 18.5 km/h 6 % 0 mm
15:14 41.5 °C -1.2 °C 1006.7 hPa WNW 8 km/h 16.7 km/h 7 % 0 mm
15:19 41.6 °C -1.2 °C 1006.7 hPa WNW 9.5 km/h 16.1 km/h 7 % 0 mm
15:24 41.8 °C -1.1 °C 1006.7 hPa NW 21.4 km/h 29.6 km/h 7 % 0 mm
15:29 41.3 °C -1.3 °C 1006.7 hPa NW 20.1 km/h 27.8 km/h 7 % 0 mm
15:34 41.2 °C -1.4 °C 1006.7 hPa WNW 14.5 km/h 18.5 km/h 7 % 0 mm
15:39 41.3 °C -1.3 °C 1006.3 hPa NW 18.3 km/h 24.1 km/h 7 % 0 mm
15:44 41.3 °C -1.4 °C 1006.3 hPa North 10.9 km/h 16.7 km/h 7 % 0 mm
15:49 41.8 °C -1.1 °C 1006.3 hPa North 19.8 km/h 20.4 km/h 7 % 0 mm
15:54 41.7 °C -1.1 °C 1006 hPa North 14 km/h 14.8 km/h 7 % 0 mm
15:59 41.6 °C -1.2 °C 1006 hPa NW 10.3 km/h 16.7 km/h 7 % 0 mm
16:04 41.9 °C -0.9 °C 1006 hPa WNW 16.4 km/h 24.1 km/h 7 % 0 mm
16:09 41.7 °C -1.1 °C 1005.6 hPa WNW 8.4 km/h 16.1 km/h 7 % 0 mm
16:14 41.7 °C -1.1 °C 1005.6 hPa North 14.8 km/h 22.2 km/h 7 % 0 mm
16:19 42.1 °C 1.1 °C 1005.6 hPa WNW 10 km/h 14.8 km/h 8 % 0 mm
16:24 42 °C -0.9 °C 1005.6 hPa NNW 13.4 km/h 19.3 km/h 7 % 0 mm
16:29 42.1 °C -0.8 °C 1005.6 hPa NW 6.8 km/h 13 km/h 7 % 0 mm
16:34 42 °C -0.9 °C 1005.6 hPa North 9.3 km/h 13 km/h 7 % 0 mm
16:39 42.1 °C -0.8 °C 1005.3 hPa North 13.4 km/h 18.5 km/h 7 % 0 mm
16:44 41.9 °C 0.9 °C 1005.3 hPa NW 4.8 km/h 7.4 km/h 8 % 0 mm
16:49 41.9 °C 0.9 °C 1005.3 hPa NNW 20.8 km/h 31.5 km/h 8 % 0 mm
16:54 41.9 °C -0.9 °C 1005.3 hPa WNW 22.7 km/h 29.6 km/h 7 % 0 mm
16:59 42 °C 0.9 °C 1005.3 hPa North 9.8 km/h 18.5 km/h 8 % 0 mm
17:04 42.2 °C -0.7 °C 1005.3 hPa North 20.1 km/h 29.6 km/h 7 % 0 mm
17:09 42.3 °C -0.6 °C 1005 hPa North 9.2 km/h 18.5 km/h 7 % 0 mm
17:14 42.2 °C -0.7 °C 1005 hPa NNW 12.9 km/h 20.4 km/h 7 % 0 mm
17:19 42.2 °C -0.8 °C 1005 hPa North 11.9 km/h 16.7 km/h 7 % 0 mm
17:24 41.8 °C 0.8 °C 1005 hPa WNW 9.2 km/h 14.8 km/h 8 % 0 mm
17:29 42.3 °C -0.7 °C 1005 hPa WNW 5.1 km/h 11.1 km/h 7 % 0 mm
17:34 42.6 °C 1.4 °C 1005 hPa WNW 11.6 km/h 25.9 km/h 8 % 0 mm
17:39 42.2 °C 1.1 °C 1005 hPa NNW 12.2 km/h 18.5 km/h 8 % 0 mm
17:44 41.3 °C 2.1 °C 1005 hPa North 10.5 km/h 18.5 km/h 9 % 0 mm
17:49 40.7 °C 1.7 °C 1005 hPa WNW 20.6 km/h 29.6 km/h 9 % 0 mm
17:54 40.4 °C 2.9 °C 1005 hPa West 15.8 km/h 31.5 km/h 10 % 0 mm
17:59 40.2 °C 2.7 °C 1005 hPa West 16.6 km/h 20.9 km/h 10 % 0 mm
18:04 40.2 °C 4.1 °C 1005 hPa North 6 km/h 13 km/h 11 % 0 mm
18:09 40.1 °C 4.1 °C 1005 hPa West 6.4 km/h 13 km/h 11 % 0 mm
18:14 39.4 °C 9 °C 1005.3 hPa South 16.1 km/h 20.4 km/h 16 % 0 mm
18:19 38.4 °C 9.9 °C 1005.3 hPa SW 13 km/h 20.4 km/h 18 % 0 mm
18:24 37.8 °C 10.2 °C 1005.3 hPa SW 16.9 km/h 20.9 km/h 19 % 0 mm
18:29 37.7 °C 10.1 °C 1005.3 hPa SSW 13.8 km/h 18.5 km/h 19 % 0 mm
18:34 37.5 °C 9.9 °C 1005.3 hPa SSW 16.7 km/h 24.1 km/h 19 % 0 mm
18:39 37.3 °C 10.6 °C 1005.6 hPa South 18 km/h 31.5 km/h 20 % 0 mm
18:44 37.4 °C 11.4 °C 1005.6 hPa South 12.7 km/h 24.1 km/h 21 % 0 mm
18:49 37.5 °C 11.5 °C 1005.6 hPa South 13.7 km/h 18.5 km/h 21 % 0 mm
18:54 37.2 °C 11.2 °C 1005.3 hPa SSE 12.7 km/h 16.7 km/h 21 % 0 mm
18:59 36.9 °C 11.7 °C 1005.6 hPa SSW 9.7 km/h 25.9 km/h 22 % 0 mm
19:05 36.7 °C 12.2 °C 1006 hPa South 10.8 km/h 25.7 km/h 23 % 0 mm
19:10 36.4 °C 12.6 °C 1006.3 hPa South 13.4 km/h 24.1 km/h 24 % 0 mm
19:15 36.1 °C 12.3 °C 1006.3 hPa SSW 20 km/h 29.6 km/h 24 % 0 mm
19:20 35.6 °C 12.5 °C 1006.3 hPa South 19.6 km/h 29.6 km/h 25 % 0 mm
19:25 35.3 °C 12.9 °C 1006.3 hPa South 20.1 km/h 27.8 km/h 26 % 0 mm
19:30 34.8 °C 12.5 °C 1006.3 hPa SW 14.6 km/h 25.9 km/h 26 % 0 mm
19:35 34.5 °C 12.8 °C 1006.7 hPa SSW 15.8 km/h 22.2 km/h 27 % 0 mm
19:40 33.9 °C 12.3 °C 1006.7 hPa SSW 17.2 km/h 22.2 km/h 27 % 0 mm
19:45 33.6 °C 13.1 °C 1006.7 hPa South 18.5 km/h 25.9 km/h 29 % 0 mm
19:50 33.1 °C 13.7 °C 1006.7 hPa SSW 19 km/h 25.9 km/h 31 % 0 mm
19:55 32.7 °C 13.8 °C 1007 hPa SSW 16.9 km/h 27.8 km/h 32 % 0 mm
20:00 32.2 °C 13.4 °C 1007.3 hPa SSW 14.3 km/h 22.2 km/h 32 % 0 mm
20:05 31.8 °C 13.5 °C 1007.3 hPa South 12.6 km/h 18.5 km/h 33 % 0 mm
20:10 31.4 °C 12.7 °C 1007.3 hPa SW 22.7 km/h 27.8 km/h 32 % 0 mm
20:15 31.1 °C 12.9 °C 1007.3 hPa SSW 20.8 km/h 29.6 km/h 33 % 0 mm
20:20 30.7 °C 12.6 °C 1007.3 hPa SSW 16.1 km/h 25.9 km/h 33 % 0 mm
20:25 30.3 °C 12.7 °C 1007.7 hPa SSW 11.9 km/h 17.7 km/h 34 % 0 mm
20:30 30.1 °C 12.5 °C 1007.7 hPa SSW 9.3 km/h 16.7 km/h 34 % 0 mm
20:35 29.8 °C 12.7 °C 1007.7 hPa South 15.6 km/h 22.2 km/h 35 % 0 mm
20:40 29.5 °C 12.8 °C 1007.7 hPa South 6.3 km/h 14.8 km/h 36 % 0 mm
20:45 29.2 °C 12.6 °C 1008 hPa SSW 11.3 km/h 18.5 km/h 36 % 0 mm
20:50 28.9 °C 12.7 °C 1008 hPa North 10 km/h 18.5 km/h 37 % 0 mm
20:55 28.6 °C 12.4 °C 1008 hPa SSW 9.3 km/h 18.5 km/h 37 % 0 mm
21:00 28.3 °C 12.2 °C 1008 hPa SSW 12.9 km/h 17.7 km/h 37 % 0 mm
21:05 28.1 °C 12.4 °C 1008.4 hPa SW 16.7 km/h 20.4 km/h 38 % 0 mm
21:10 27.8 °C 12.6 °C 1008.4 hPa South 11.3 km/h 16.1 km/h 39 % 0 mm
21:15 27.6 °C 12.3 °C 1008.4 hPa SSW 11.9 km/h 18.5 km/h 39 % 0 mm
21:20 27.3 °C 12.6 °C 1008.4 hPa SSW 7.6 km/h 9.3 km/h 40 % 0 mm
21:25 27.1 °C 13.1 °C 1008.7 hPa SSW 12.6 km/h 16.7 km/h 42 % 0 mm
21:30 26.8 °C 13.8 °C 1008.7 hPa SSW 7.6 km/h 11.1 km/h 45 % 0 mm
21:35 26.6 °C 14 °C 1009.4 hPa West 8.9 km/h 11.1 km/h 46 % 0 mm
21:40 26.6 °C 14.1 °C 1010 hPa North 11.4 km/h 16.7 km/h 46 % 0 mm
21:45 26.7 °C 13.8 °C 1009.7 hPa North 3.9 km/h 6.4 km/h 45 % 0 mm
21:50 26.8 °C 13.5 °C 1010 hPa North 0.6 km/h 1.9 km/h 44 % 0 mm
21:55 26.8 °C 13.8 °C 1010.4 hPa Calm   1.6 km/h 45 % 0 mm
22:00 26.5 °C 13.9 °C 1010 hPa North 1.9 km/h 5.6 km/h 46 % 0 mm
22:05 26.1 °C 14.2 °C 1009.7 hPa North 3.4 km/h 5.6 km/h 48 % 0 mm
22:10 25.7 °C 14.5 °C 1009.7 hPa South 13.4 km/h 16.7 km/h 50 % 0 mm
22:15 25.4 °C 14.8 °C 1009.4 hPa South 10.3 km/h 14.8 km/h 52 % 0 mm
22:20 25 °C 14.8 °C 1009.4 hPa North 11.6 km/h 16.7 km/h 53 % 0 mm
22:25 24.7 °C 14.8 °C 1009.4 hPa SSW 0.2 km/h 5.6 km/h 54 % 0 mm
22:30 24.5 °C 15.2 °C 1009.4 hPa South 10.9 km/h 19.3 km/h 56 % 0 mm
22:35 24.3 °C 15 °C 1009 hPa South 9.3 km/h 13 km/h 56 % 0 mm
22:40 24.1 °C 15.1 °C 1009.4 hPa South 3.4 km/h 11.3 km/h 57 % 0 mm
22:45 23.9 °C 15.1 °C 1009 hPa South 9.7 km/h 13 km/h 58 % 0 mm
22:50 23.7 °C 15.4 °C 1009 hPa South 9.2 km/h 14.8 km/h 60 % 0 mm
22:55 23.6 °C 15.3 °C 1009 hPa South 7.2 km/h 14.8 km/h 60 % 0 mm
23:00 23.3 °C 15.4 °C 1009 hPa South 7.2 km/h 11.3 km/h 61 % 0 mm
23:05 23.2 °C 15.5 °C 1009 hPa North 6.3 km/h 7.4 km/h 62 % 0 mm
23:10 23.1 °C 15.4 °C 1009 hPa South 3.9 km/h 5.6 km/h 62 % 0 mm
23:15 22.9 °C 15.5 °C 1009 hPa South 5.8 km/h 7.4 km/h 63 % 0 mm
23:20 22.8 °C 15.4 °C 1009 hPa South 8 km/h 12.9 km/h 63 % 0 mm
23:25 22.7 °C 15.5 °C 1009.4 hPa SSW 5.6 km/h 13 km/h 64 % 0 mm
23:30 22.3 °C 15.4 °C 1009.4 hPa SSW 16.6 km/h 24.1 km/h 65 % 0 mm
23:35 21.9 °C 15.2 °C 1009.4 hPa SSW 20.8 km/h 20.8 km/h 66 % 0 mm
23:40 21.6 °C 15.2 °C 1009.4 hPa North 15.3 km/h 18.5 km/h 67 % 0 mm
23:45 21.3 °C 15.1 °C 1009.4 hPa SSW 14.2 km/h 24.1 km/h 68 % 0 mm
23:50 21 °C 15.1 °C 1009.7 hPa South 9.7 km/h 20.4 km/h 69 % 0 mm
23:55 20.6 °C 15.2 °C 1009.7 hPa North 13.5 km/h 22.2 km/h 71 % 0 mm
Ararat Weather
Compliments of Weather Underground - 2.5 mb
Click here to send mail.


ABOUT

Live weather data from Ararat, Victoria, Australia, 3377
Data uploaded from Cumulus every 5 minutes to Weather Underground.
This site then downloads the raw data for formatting and display.
Metric and imperial data can be displayed. Graphs and historical data available.
Includes Sun and Moon times and rain image live from BOM.

Check out Ararat Weather on Facebook, Twitter and Google +

Help support ongoing costs by checking out the ads





Follow @AraratWeather